createdAt,value
2018-09-21T00:00:23.589Z,90.70
2018-09-21T00:02:52.199Z,90.90
2018-09-21T00:05:20.781Z,91.20
2018-09-21T00:07:49.429Z,91.50
2018-09-21T00:10:18.149Z,92.00
2018-09-21T00:12:46.796Z,91.20
2018-09-21T00:15:15.459Z,91.30
2018-09-21T00:17:44.071Z,91.50
2018-09-21T00:20:13.149Z,91.70
2018-09-21T00:22:41.761Z,92.00
2018-09-21T00:25:10.449Z,92.00
2018-09-21T00:27:39.101Z,91.80
2018-09-21T00:30:07.824Z,91.50
2018-09-21T00:32:36.541Z,92.00
2018-09-21T00:35:05.237Z,92.00
2018-09-21T00:37:33.909Z,92.10
2018-09-21T00:40:02.617Z,92.20
2018-09-21T00:42:31.508Z,92.20
2018-09-21T00:45:00.224Z,92.60
2018-09-21T00:47:28.879Z,92.60
2018-09-21T00:49:57.527Z,92.70
2018-09-21T00:52:26.136Z,92.90
2018-09-21T00:54:54.736Z,93.00
2018-09-21T00:57:23.852Z,93.80
2018-09-21T00:59:52.473Z,93.10
2018-09-21T01:02:21.083Z,93.10
2018-09-21T01:04:49.703Z,93.00
2018-09-21T01:07:18.326Z,92.80
2018-09-21T01:09:46.933Z,92.80
2018-09-21T01:12:15.593Z,93.00
2018-09-21T01:14:44.218Z,93.00
2018-09-21T01:17:12.836Z,93.10
2018-09-21T01:19:41.536Z,93.20
2018-09-21T01:22:10.121Z,93.10
2018-09-21T01:24:38.713Z,93.20
2018-09-21T01:27:07.405Z,93.30
2018-09-21T01:29:36.038Z,93.30
2018-09-21T01:32:04.659Z,93.20
2018-09-21T01:34:33.283Z,93.20
2018-09-21T01:37:01.891Z,93.50
2018-09-21T01:39:30.528Z,93.50
2018-09-21T01:41:59.191Z,93.50
2018-09-21T01:44:27.869Z,93.40
2018-09-21T01:46:56.502Z,93.50
2018-09-21T01:49:25.193Z,93.20
2018-09-21T01:51:53.896Z,93.20
2018-09-21T01:54:22.555Z,93.60
2018-09-21T01:56:51.246Z,93.70
2018-09-21T01:59:19.903Z,93.80
2018-09-21T02:01:49.008Z,93.80
2018-09-21T02:04:17.806Z,93.80
2018-09-21T02:06:46.461Z,93.80
2018-09-21T02:09:15.103Z,93.90
2018-09-21T02:11:43.736Z,93.80
2018-09-21T02:14:12.376Z,93.80
2018-09-21T02:16:41.108Z,94.10
2018-09-21T02:19:10.959Z,93.50
2018-09-21T02:21:39.726Z,93.50
2018-09-21T02:24:08.373Z,93.40
2018-09-21T02:26:37.055Z,93.60
2018-09-21T02:29:05.773Z,93.50
2018-09-21T02:31:34.390Z,94.00
2018-09-21T02:34:03.020Z,92.90
2018-09-21T02:36:31.660Z,91.70
2018-09-21T02:39:00.320Z,91.60
2018-09-21T02:41:29.088Z,91.70
2018-09-21T02:43:57.741Z,92.10
2018-09-21T02:46:26.410Z,92.70
2018-09-21T02:48:55.141Z,93.00
2018-09-21T02:51:23.704Z,93.30
2018-09-21T02:53:52.376Z,93.20
2018-09-21T02:56:21.652Z,93.60
2018-09-21T02:58:50.729Z,93.70
2018-09-21T03:01:19.596Z,93.90
2018-09-21T03:03:48.373Z,94.20
2018-09-21T03:06:17.134Z,94.10
2018-09-21T03:08:45.828Z,94.20
2018-09-21T03:11:14.524Z,94.30
2018-09-21T03:13:43.234Z,94.40
2018-09-21T03:16:11.984Z,94.60
2018-09-21T03:18:40.656Z,94.90
2018-09-21T03:21:09.329Z,95.00
2018-09-21T03:23:37.986Z,95.70
2018-09-21T03:26:06.881Z,95.80
2018-09-21T03:28:35.634Z,94.90
2018-09-21T03:31:04.342Z,94.90
2018-09-21T03:33:33.065Z,94.80
2018-09-21T03:36:01.690Z,94.90
2018-09-21T03:38:30.959Z,94.80
2018-09-21T03:40:59.601Z,94.50
2018-09-21T03:43:28.258Z,94.60
2018-09-21T03:45:56.914Z,94.50
2018-09-21T03:48:26.533Z,94.40
2018-09-21T03:50:55.221Z,94.50
2018-09-21T03:53:23.828Z,94.80
2018-09-21T03:55:52.532Z,94.80
2018-09-21T03:58:21.224Z,94.80
2018-09-21T04:00:49.948Z,94.60
2018-09-21T04:03:18.661Z,94.50
2018-09-21T04:05:47.341Z,94.60
2018-09-21T04:08:16.034Z,94.90
2018-09-21T04:10:44.713Z,94.90
2018-09-21T04:13:13.355Z,95.00
2018-09-21T04:15:41.973Z,95.80
2018-09-21T04:18:10.628Z,95.80
2018-09-21T04:20:39.300Z,95.00
2018-09-21T04:23:08.121Z,94.50
2018-09-21T04:25:36.820Z,94.50
2018-09-21T04:28:05.635Z,94.30
2018-09-21T04:30:34.346Z,94.40
2018-09-21T04:33:03.135Z,94.30
2018-09-21T04:35:31.813Z,94.30
2018-09-21T04:38:00.453Z,94.50
2018-09-21T04:40:29.106Z,94.60
2018-09-21T04:42:57.750Z,94.50
2018-09-21T04:45:26.400Z,94.50
2018-09-21T04:47:55.140Z,94.60
2018-09-21T04:50:23.865Z,94.80
2018-09-21T04:52:52.513Z,94.80
2018-09-21T04:55:21.693Z,94.90
2018-09-21T04:57:50.377Z,94.90
2018-09-21T05:00:19.034Z,95.00
2018-09-21T05:02:47.758Z,95.10
2018-09-21T05:05:16.498Z,95.00
2018-09-21T05:07:45.253Z,94.90
2018-09-21T05:10:14.001Z,94.80
2018-09-21T05:12:42.767Z,95.20
2018-09-21T05:15:11.505Z,95.10
2018-09-21T05:17:40.287Z,94.80
2018-09-21T05:20:09.163Z,94.70
2018-09-21T05:22:37.793Z,94.80
2018-09-21T05:25:07.578Z,95.00
2018-09-21T05:27:36.280Z,95.00
2018-09-21T05:30:05.214Z,95.10
2018-09-21T05:32:34.030Z,95.30
2018-09-21T05:35:02.847Z,95.20
2018-09-21T05:37:31.613Z,95.20
2018-09-21T05:40:00.302Z,95.00
2018-09-21T05:42:28.942Z,94.90
2018-09-21T05:44:57.668Z,94.80
2018-09-21T05:47:26.353Z,94.80
2018-09-21T05:49:55.330Z,95.10
2018-09-21T05:52:23.975Z,95.20
2018-09-21T05:54:52.601Z,95.30
2018-09-21T05:57:21.286Z,95.10
2018-09-21T05:59:50.025Z,95.30
2018-09-21T06:02:18.806Z,95.20
2018-09-21T06:04:51.371Z,94.50
2018-09-21T06:07:20.089Z,94.10
2018-09-21T06:09:48.806Z,93.60
2018-09-21T06:12:17.422Z,93.10
2018-09-21T06:14:46.001Z,91.50
2018-09-21T06:17:14.601Z,91.20
2018-09-21T06:19:43.244Z,92.30
2018-09-21T06:22:12.054Z,91.90
2018-09-21T06:24:40.764Z,91.80
2018-09-21T06:27:09.446Z,91.40
2018-09-21T06:29:38.133Z,88.50
2018-09-21T06:32:06.834Z,86.20
2018-09-21T06:34:35.435Z,88.10
2018-09-21T06:37:04.066Z,86.80
2018-09-21T06:39:32.822Z,86.60
2018-09-21T06:42:01.570Z,84.20
2018-09-21T06:44:30.316Z,81.70
2018-09-21T06:46:59.181Z,82.00
2018-09-21T06:49:27.961Z,79.60
2018-09-21T06:51:56.587Z,78.30
2018-09-21T06:54:25.229Z,77.90
2018-09-21T06:56:53.828Z,79.20
2018-09-21T06:59:22.536Z,80.10
2018-09-21T07:01:51.191Z,78.70
2018-09-21T07:04:19.740Z,78.00
2018-09-21T07:06:48.436Z,77.70
2018-09-21T07:09:17.081Z,75.90
2018-09-21T07:11:45.745Z,75.80
2018-09-21T07:14:14.409Z,73.60
2018-09-21T07:16:43.003Z,71.60
2018-09-21T07:19:11.610Z,71.30
2018-09-21T07:21:40.233Z,70.80
2018-09-21T07:24:08.873Z,68.70
2018-09-21T07:26:37.456Z,67.80
2018-09-21T07:29:06.118Z,66.20
2018-09-21T07:31:34.703Z,65.30
2018-09-21T07:34:03.304Z,64.30
2018-09-21T07:36:31.984Z,63.80
2018-09-21T07:39:00.659Z,63.00
2018-09-21T07:41:29.601Z,62.90
2018-09-21T07:43:58.209Z,62.90
2018-09-21T07:46:26.841Z,62.80
2018-09-21T07:48:55.478Z,62.40
2018-09-21T07:51:24.112Z,61.80
2018-09-21T07:53:52.801Z,61.10
2018-09-21T07:56:21.556Z,60.40
2018-09-21T07:58:50.216Z,58.80
2018-09-21T08:01:18.833Z,58.60
2018-09-21T08:03:47.479Z,57.70
2018-09-21T08:06:16.216Z,57.60
2018-09-21T08:08:45.015Z,57.30
2018-09-21T08:11:13.669Z,54.10
2018-09-21T08:13:42.344Z,54.00
2018-09-21T08:16:11.019Z,53.80
2018-09-21T08:18:39.983Z,52.00
2018-09-21T08:21:08.645Z,51.30
2018-09-21T08:23:37.276Z,49.50
2018-09-21T08:26:05.986Z,48.20
2018-09-21T08:28:34.621Z,48.30
2018-09-21T08:31:03.198Z,46.80
2018-09-21T08:33:31.766Z,46.70
2018-09-21T08:36:00.689Z,47.10
2018-09-21T08:38:29.303Z,45.70
2018-09-21T08:40:57.941Z,45.10
2018-09-21T08:43:26.554Z,45.20
2018-09-21T08:45:55.267Z,43.50
2018-09-21T08:48:23.911Z,42.90
2018-09-21T08:50:52.571Z,42.70
2018-09-21T08:53:21.252Z,41.80
2018-09-21T08:55:49.871Z,41.30
2018-09-21T08:58:18.476Z,40.90
2018-09-21T09:00:48.124Z,40.10
2018-09-21T09:03:16.819Z,38.60
2018-09-21T09:05:51.433Z,39.40
2018-09-21T09:08:20.984Z,38.50
2018-09-21T09:10:49.724Z,38.40
2018-09-21T09:13:19.131Z,38.10
2018-09-21T09:15:48.469Z,37.60
2018-09-21T09:18:17.136Z,36.80
2018-09-21T09:20:45.866Z,36.60
2018-09-21T09:23:14.543Z,37.10
2018-09-21T09:25:43.211Z,34.90
2018-09-21T09:28:11.870Z,35.80
2018-09-21T09:30:40.589Z,34.40
2018-09-21T09:33:09.254Z,33.90
2018-09-21T09:35:37.894Z,35.90
2018-09-21T09:38:06.866Z,35.90
2018-09-21T09:40:35.496Z,35.30
2018-09-21T09:43:04.275Z,35.90
2018-09-21T09:45:32.851Z,33.90
2018-09-21T09:48:01.463Z,34.50
2018-09-21T09:50:30.147Z,34.10
2018-09-21T09:52:58.784Z,33.60
2018-09-21T09:55:27.385Z,33.40
2018-09-21T09:57:56.018Z,32.60
2018-09-21T10:00:30.112Z,33.50
2018-09-21T10:02:58.864Z,31.20
2018-09-21T10:05:27.594Z,32.00
2018-09-21T10:07:56.258Z,32.30
2018-09-21T10:10:25.530Z,31.60
2018-09-21T10:12:54.096Z,32.10
2018-09-21T10:15:22.762Z,32.90
2018-09-21T10:17:51.396Z,33.40
2018-09-21T10:20:20.132Z,31.80
2018-09-21T10:22:48.794Z,30.30
2018-09-21T10:25:18.244Z,31.30
2018-09-21T10:27:47.070Z,32.30
2018-09-21T10:30:15.644Z,30.20
2018-09-21T10:32:44.276Z,30.70
2018-09-21T10:35:13.035Z,31.50
2018-09-21T10:37:41.673Z,30.80
2018-09-21T10:40:10.462Z,30.90
2018-09-21T10:42:39.150Z,31.00
2018-09-21T10:45:08.024Z,31.30
2018-09-21T10:47:36.637Z,29.10
2018-09-21T10:50:05.430Z,30.20
2018-09-21T10:52:34.190Z,30.00
2018-09-21T10:55:02.925Z,30.50
2018-09-21T10:57:31.555Z,30.40
2018-09-21T11:00:00.349Z,30.00
2018-09-21T11:02:29.011Z,30.10
2018-09-21T11:04:57.664Z,28.80
2018-09-21T11:07:26.436Z,27.70
2018-09-21T11:09:55.141Z,28.10
2018-09-21T11:12:23.894Z,27.60
2018-09-21T11:14:52.692Z,27.20
2018-09-21T11:17:21.403Z,28.50
2018-09-21T11:19:50.096Z,30.10
2018-09-21T11:22:18.775Z,31.20
2018-09-21T11:24:48.486Z,31.20
2018-09-21T11:27:17.202Z,30.30
2018-09-21T11:29:46.027Z,29.90
2018-09-21T11:32:14.701Z,28.10
2018-09-21T11:34:43.601Z,27.80
2018-09-21T11:37:12.321Z,28.50
2018-09-21T11:39:41.160Z,28.00
2018-09-21T11:42:09.831Z,28.20
2018-09-21T11:44:38.466Z,29.50
2018-09-21T11:47:07.162Z,28.60
2018-09-21T11:49:35.808Z,29.30
2018-09-21T11:52:04.553Z,29.10
2018-09-21T11:54:33.211Z,29.30
2018-09-21T11:57:01.902Z,27.70
2018-09-21T11:59:30.899Z,28.50
2018-09-21T12:01:59.737Z,27.90
2018-09-21T12:04:28.556Z,27.70
2018-09-21T12:06:57.265Z,28.20
2018-09-21T12:09:26.006Z,29.00
2018-09-21T12:11:54.888Z,28.40
2018-09-21T12:14:23.727Z,28.40
2018-09-21T12:16:53.585Z,26.90
2018-09-21T12:19:22.357Z,26.70
2018-09-21T12:21:51.216Z,26.40
2018-09-21T12:24:20.021Z,27.20
2018-09-21T12:26:48.699Z,27.60
2018-09-21T12:29:17.597Z,26.70
2018-09-21T12:31:46.384Z,25.60
2018-09-21T12:34:15.112Z,26.10
2018-09-21T12:36:44.424Z,25.90
2018-09-21T12:39:14.180Z,26.00
2018-09-21T12:41:43.306Z,25.50
2018-09-21T12:44:15.850Z,25.10
2018-09-21T12:46:44.669Z,23.80
2018-09-21T12:49:13.446Z,24.30
2018-09-21T12:51:42.235Z,24.50
2018-09-21T12:54:10.935Z,24.40
2018-09-21T12:56:40.481Z,25.40
2018-09-21T12:59:09.388Z,24.90
2018-09-21T13:01:38.189Z,25.60
2018-09-21T13:04:06.987Z,26.80
2018-09-21T13:06:36.355Z,27.40
2018-09-21T13:09:06.564Z,28.20
2018-09-21T13:11:35.939Z,27.20
2018-09-21T13:14:05.227Z,27.50
2018-09-21T13:16:33.867Z,26.80
2018-09-21T13:19:02.594Z,27.40
2018-09-21T13:21:31.837Z,27.90
2018-09-21T13:24:00.539Z,27.40
2018-09-21T13:26:29.256Z,27.10
2018-09-21T13:28:58.056Z,28.00
2018-09-21T13:31:26.669Z,30.50
2018-09-21T13:33:55.772Z,31.50
2018-09-21T13:36:24.478Z,32.00
2018-09-21T13:38:53.154Z,33.70
2018-09-21T13:41:22.119Z,33.70
2018-09-21T13:43:50.816Z,33.70
2018-09-21T13:46:19.529Z,33.80
2018-09-21T13:48:48.244Z,31.60
2018-09-21T13:51:17.614Z,31.50
2018-09-21T13:53:46.327Z,31.00
2018-09-21T13:56:15.082Z,30.90
2018-09-21T13:58:43.766Z,31.70
2018-09-21T14:01:12.437Z,33.20
2018-09-21T14:03:41.245Z,35.50
2018-09-21T14:06:10.661Z,35.20
2018-09-21T14:08:39.324Z,34.00
2018-09-21T14:11:07.929Z,34.40
2018-09-21T14:13:36.656Z,33.80
2018-09-21T14:16:06.250Z,34.00
2018-09-21T14:18:34.961Z,35.50
2018-09-21T14:21:04.157Z,36.00
2018-09-21T14:23:32.878Z,36.20
2018-09-21T14:26:01.667Z,36.10
2018-09-21T14:28:31.558Z,36.60
2018-09-21T14:31:00.365Z,36.00
2018-09-21T14:33:29.930Z,34.70
2018-09-21T14:35:59.009Z,35.20
2018-09-21T14:38:28.552Z,38.80
2018-09-21T14:40:57.299Z,38.60
2018-09-21T14:43:26.929Z,37.50
2018-09-21T14:45:55.752Z,36.40
2018-09-21T14:48:24.422Z,36.30
2018-09-21T14:50:53.177Z,36.50
2018-09-21T14:53:21.817Z,35.20
2018-09-21T14:55:50.527Z,35.10
2018-09-21T14:58:19.781Z,35.50
2018-09-21T15:00:49.037Z,37.30
2018-09-21T15:03:17.669Z,39.00
2018-09-21T15:05:46.438Z,39.70
2018-09-21T15:08:15.135Z,40.50
2018-09-21T15:10:43.881Z,40.30
2018-09-21T15:13:12.598Z,41.30
2018-09-21T15:15:41.229Z,42.30
2018-09-21T15:18:09.997Z,43.50
2018-09-21T15:20:38.727Z,44.60
2018-09-21T15:23:07.430Z,45.10
2018-09-21T15:25:36.119Z,45.20
2018-09-21T15:28:04.816Z,45.50
2018-09-21T15:30:33.512Z,46.10
2018-09-21T15:33:02.244Z,46.10
2018-09-21T15:35:30.933Z,46.20
2018-09-21T15:37:59.604Z,45.70
2018-09-21T15:40:28.315Z,44.80
2018-09-21T15:42:57.647Z,44.60
2018-09-21T15:45:26.368Z,44.10
2018-09-21T15:47:55.685Z,43.90
2018-09-21T15:50:24.365Z,43.70
2018-09-21T15:52:53.182Z,44.50
2018-09-21T15:55:22.322Z,45.70
2018-09-21T15:57:51.143Z,46.80
2018-09-21T16:00:19.812Z,47.00
2018-09-21T16:02:48.522Z,47.90
2018-09-21T16:05:17.261Z,48.50
2018-09-21T16:07:46.005Z,48.10
2018-09-21T16:10:14.743Z,48.30
2018-09-21T16:12:43.510Z,48.60
2018-09-21T16:15:12.241Z,47.60
2018-09-21T16:17:41.072Z,48.10
2018-09-21T16:20:09.817Z,48.50
2018-09-21T16:22:38.552Z,48.20
2018-09-21T16:25:07.342Z,48.30
2018-09-21T16:27:36.052Z,48.70
2018-09-21T16:30:07.471Z,49.70
2018-09-21T16:32:36.180Z,50.00
2018-09-21T16:35:05.509Z,50.00
2018-09-21T16:37:34.441Z,51.00
2018-09-21T16:40:03.473Z,51.30
2018-09-21T16:42:33.290Z,51.70
2018-09-21T16:45:02.155Z,52.00
2018-09-21T16:47:31.256Z,52.30
2018-09-21T16:49:59.963Z,52.90
2018-09-21T16:52:29.107Z,53.00
2018-09-21T16:54:57.796Z,53.30
2018-09-21T16:57:26.452Z,53.70
2018-09-21T16:59:55.142Z,53.90
2018-09-21T17:02:24.170Z,54.50
2018-09-21T17:04:53.055Z,54.70
2018-09-21T17:07:21.646Z,55.10
2018-09-21T17:09:50.374Z,56.00
2018-09-21T17:12:19.315Z,57.00
2018-09-21T17:14:48.031Z,57.40
2018-09-21T17:17:17.654Z,57.40
2018-09-21T17:19:46.371Z,57.30
2018-09-21T17:22:15.122Z,57.40
2018-09-21T17:24:43.949Z,57.40
2018-09-21T17:27:12.721Z,57.40
2018-09-21T17:29:41.449Z,57.70
2018-09-21T17:32:10.243Z,58.00
2018-09-21T17:34:39.042Z,58.50
2018-09-21T17:37:07.846Z,58.80
2018-09-21T17:39:36.598Z,58.70
2018-09-21T17:42:05.779Z,58.60
2018-09-21T17:44:35.506Z,59.00
2018-09-21T17:47:04.242Z,59.30
2018-09-21T17:49:33.134Z,59.40
2018-09-21T17:52:02.365Z,60.00
2018-09-21T17:54:31.662Z,60.00
2018-09-21T17:57:01.397Z,60.20
2018-09-21T17:59:30.224Z,60.20
2018-09-21T18:01:59.224Z,60.60
2018-09-21T18:04:28.058Z,60.70
2018-09-21T18:06:57.234Z,61.00
2018-09-21T18:09:26.204Z,60.90
2018-09-21T18:11:55.009Z,61.30
2018-09-21T18:14:24.001Z,61.80
2018-09-21T18:16:52.762Z,62.20
2018-09-21T18:19:21.476Z,62.00
2018-09-21T18:21:50.174Z,62.40
2018-09-21T18:24:19.788Z,62.80
2018-09-21T18:26:48.557Z,63.40
2018-09-21T18:29:17.299Z,63.50
2018-09-21T18:31:46.140Z,63.60
2018-09-21T18:34:15.572Z,63.90
2018-09-21T18:36:44.369Z,63.70
2018-09-21T18:39:13.175Z,63.50
2018-09-21T18:41:41.907Z,63.60
2018-09-21T18:44:10.643Z,63.80
2018-09-21T18:46:39.954Z,63.80
2018-09-21T18:49:08.699Z,63.60
2018-09-21T18:51:37.449Z,63.60
2018-09-21T18:54:07.306Z,63.70
2018-09-21T18:56:36.273Z,64.00
2018-09-21T18:59:05.274Z,63.80
2018-09-21T19:01:34.705Z,64.40
2018-09-21T19:04:04.190Z,64.60
2018-09-21T19:06:33.292Z,64.50
2018-09-21T19:09:02.052Z,65.00
2018-09-21T19:11:30.816Z,65.00
2018-09-21T19:13:59.629Z,65.30
2018-09-21T19:16:28.774Z,65.50
2018-09-21T19:18:57.604Z,65.70
2018-09-21T19:21:26.493Z,66.00
2018-09-21T19:23:55.238Z,66.30
2018-09-21T19:26:25.358Z,67.30
2018-09-21T19:28:54.526Z,68.00
2018-09-21T19:31:23.369Z,68.90
2018-09-21T19:33:52.905Z,69.70
2018-09-21T19:36:21.721Z,71.20
2018-09-21T19:38:50.703Z,71.00
2018-09-21T19:41:19.954Z,71.10
2018-09-21T19:43:48.957Z,71.70
2018-09-21T19:46:17.771Z,72.10
2018-09-21T19:48:46.914Z,72.70
2018-09-21T19:51:15.750Z,73.30
2018-09-21T19:53:45.144Z,73.60
2018-09-21T19:56:14.042Z,74.10
2018-09-21T19:58:46.823Z,74.60
2018-09-21T20:01:15.678Z,74.90
2018-09-21T20:03:44.867Z,75.50
2018-09-21T20:06:13.719Z,75.60
2018-09-21T20:08:42.958Z,74.70
2018-09-21T20:11:13.388Z,74.30
2018-09-21T20:13:43.182Z,74.90
2018-09-21T20:16:12.273Z,75.20
2018-09-21T20:18:41.112Z,75.30
2018-09-21T20:21:10.943Z,75.40
2018-09-21T20:23:39.760Z,75.50
2018-09-21T20:26:08.996Z,75.90
2018-09-21T20:28:38.276Z,76.10
2018-09-21T20:31:12.651Z,76.30
2018-09-21T20:33:42.676Z,76.70
2018-09-21T20:36:11.454Z,76.80
2018-09-21T20:38:41.377Z,76.70
2018-09-21T20:41:10.126Z,76.60
2018-09-21T20:43:39.918Z,76.50
2018-09-21T20:46:09.149Z,76.90
2018-09-21T20:48:37.983Z,77.10
2018-09-21T20:51:06.764Z,77.50
2018-09-21T20:53:36.274Z,77.30
2018-09-21T20:56:05.124Z,77.60
2018-09-21T20:58:33.876Z,77.80
2018-09-21T21:01:03.001Z,78.40
2018-09-21T21:03:31.846Z,79.00
2018-09-21T21:06:00.582Z,79.20
2018-09-21T21:08:29.315Z,79.50
2018-09-21T21:11:02.065Z,80.00
2018-09-21T21:13:31.592Z,80.40
2018-09-21T21:16:01.429Z,80.80
2018-09-21T21:18:30.243Z,81.00
2018-09-21T21:20:59.055Z,80.70
2018-09-21T21:23:27.769Z,80.50
2018-09-21T21:25:56.532Z,80.80
2018-09-21T21:28:25.354Z,81.30
2018-09-21T21:30:54.095Z,81.60
2018-09-21T21:33:22.808Z,82.00
2018-09-21T21:35:51.616Z,82.50
2018-09-21T21:38:21.024Z,82.80
2018-09-21T21:40:49.758Z,83.00
2018-09-21T21:43:18.528Z,84.10
2018-09-21T21:45:47.336Z,83.90
2018-09-21T21:48:16.051Z,84.10
2018-09-21T21:50:44.718Z,84.40
2018-09-21T21:53:13.356Z,84.40
2018-09-21T21:55:42.111Z,84.40
2018-09-21T21:58:10.851Z,84.20
2018-09-21T22:00:45.491Z,84.30
2018-09-21T22:03:14.243Z,84.60
2018-09-21T22:05:42.979Z,84.80
2018-09-21T22:08:11.809Z,84.60
2018-09-21T22:10:40.787Z,84.50
2018-09-21T22:13:15.038Z,84.40
2018-09-21T22:15:43.882Z,84.90
2018-09-21T22:18:12.701Z,84.90
2018-09-21T22:20:41.501Z,83.80
2018-09-21T22:23:10.424Z,83.90
2018-09-21T22:25:39.551Z,84.00
2018-09-21T22:28:08.439Z,84.00
2018-09-21T22:30:37.279Z,84.50
2018-09-21T22:33:06.874Z,84.60
2018-09-21T22:35:35.663Z,85.20
2018-09-21T22:38:04.576Z,85.40
2018-09-21T22:40:33.393Z,85.50
2018-09-21T22:43:02.178Z,85.70
2018-09-21T22:45:30.928Z,85.80
2018-09-21T22:47:59.696Z,86.00
2018-09-21T22:50:28.445Z,86.20
2018-09-21T22:52:57.161Z,86.60
2018-09-21T22:55:25.965Z,86.80
2018-09-21T22:57:54.701Z,86.70
2018-09-21T23:00:23.506Z,86.40
2018-09-21T23:02:52.333Z,86.40
2018-09-21T23:05:21.066Z,85.60
2018-09-21T23:07:49.809Z,85.80
2018-09-21T23:10:18.558Z,85.60
2018-09-21T23:12:47.333Z,85.20
2018-09-21T23:15:16.313Z,85.40
2018-09-21T23:17:45.097Z,85.50
2018-09-21T23:20:13.856Z,86.30
2018-09-21T23:22:42.793Z,86.60
2018-09-21T23:25:11.676Z,86.50
2018-09-21T23:27:40.389Z,86.60
2018-09-21T23:30:09.166Z,87.70
2018-09-21T23:32:37.909Z,87.60
2018-09-21T23:35:06.803Z,88.30
2018-09-21T23:37:35.522Z,88.40
2018-09-21T23:40:04.431Z,89.00
2018-09-21T23:42:33.078Z,89.50
2018-09-21T23:45:01.721Z,89.80
2018-09-21T23:47:30.425Z,91.00
2018-09-21T23:49:59.080Z,90.30
2018-09-21T23:52:27.894Z,90.20
2018-09-21T23:54:56.609Z,90.80
2018-09-21T23:57:26.346Z,91.00
2018-09-21T23:59:55.066Z,91.00
